createdAt,value
2019-03-11T00:02:01.486Z,94.24
2019-03-11T00:04:32.323Z,94.00
2019-03-11T00:07:05.704Z,94.13
2019-03-11T00:09:37.626Z,93.75
2019-03-11T00:12:08.752Z,93.75
2019-03-11T00:14:39.628Z,93.79
2019-03-11T00:17:11.061Z,93.72
2019-03-11T00:19:42.509Z,93.85
2019-03-11T00:22:13.951Z,93.80
2019-03-11T00:24:45.581Z,94.05
2019-03-11T00:27:16.870Z,93.77
2019-03-11T00:29:49.509Z,93.67
2019-03-11T00:32:21.261Z,93.83
2019-03-11T00:34:52.455Z,93.82
2019-03-11T00:37:23.423Z,93.69
2019-03-11T00:39:55.100Z,93.89
2019-03-11T00:42:27.297Z,93.79
2019-03-11T00:44:58.622Z,93.80
2019-03-11T00:47:30.344Z,94.09
2019-03-11T00:50:01.931Z,93.90
2019-03-11T00:52:32.733Z,94.11
2019-03-11T00:55:05.016Z,94.08
2019-03-11T00:57:36.665Z,93.85
2019-03-11T01:00:10.805Z,93.99
2019-03-11T01:02:42.620Z,93.94
2019-03-11T01:05:14.497Z,94.03
2019-03-11T01:07:45.748Z,94.08
2019-03-11T01:10:16.917Z,94.13
2019-03-11T01:12:48.349Z,93.79
2019-03-11T01:15:19.707Z,93.55
2019-03-11T01:17:50.649Z,93.51
2019-03-11T01:20:22.925Z,93.79
2019-03-11T01:22:54.430Z,93.91
2019-03-11T01:25:27.359Z,93.89
2019-03-11T01:27:59.824Z,93.59
2019-03-11T01:30:31.193Z,93.69
2019-03-11T01:33:02.903Z,93.68
2019-03-11T01:35:34.767Z,93.73
2019-03-11T01:38:06.170Z,93.46
2019-03-11T01:40:37.839Z,93.65
2019-03-11T01:43:09.085Z,93.74
2019-03-11T01:45:42.255Z,93.67
2019-03-11T01:48:13.970Z,93.35
2019-03-11T01:50:45.853Z,93.07
2019-03-11T01:53:17.586Z,93.08
2019-03-11T01:55:49.049Z,93.09
2019-03-11T01:58:20.654Z,92.91
2019-03-11T02:00:52.325Z,92.98
2019-03-11T02:03:24.148Z,92.89
2019-03-11T02:05:56.326Z,92.93
2019-03-11T02:08:27.921Z,92.41
2019-03-11T02:10:59.436Z,92.29
2019-03-11T02:13:31.506Z,92.38
2019-03-11T02:16:03.517Z,92.58
2019-03-11T02:18:34.902Z,92.60
2019-03-11T02:21:06.929Z,92.51
2019-03-11T02:23:38.876Z,92.67
2019-03-11T02:26:10.666Z,92.41
2019-03-11T02:28:42.238Z,92.38
2019-03-11T02:31:14.002Z,91.85
2019-03-11T02:33:45.360Z,91.94
2019-03-11T02:36:16.625Z,92.17
2019-03-11T02:38:47.344Z,92.06
2019-03-11T02:41:19.389Z,91.95
2019-03-11T02:43:50.951Z,92.07
2019-03-11T02:46:23.342Z,92.12
2019-03-11T02:48:54.504Z,92.07
2019-03-11T02:51:25.714Z,91.97
2019-03-11T02:53:57.656Z,92.04
2019-03-11T02:56:29.611Z,92.02
2019-03-11T02:59:01.514Z,92.27
2019-03-11T03:01:33.945Z,92.15
2019-03-11T03:04:06.685Z,91.91
2019-03-11T03:06:37.780Z,91.61
2019-03-11T03:09:12.699Z,91.70
2019-03-11T03:11:44.538Z,91.62
2019-03-11T03:14:16.279Z,91.56
2019-03-11T03:16:47.389Z,91.44
2019-03-11T03:19:18.307Z,90.96
2019-03-11T03:21:50.586Z,91.47
2019-03-11T03:24:22.104Z,91.28
2019-03-11T03:26:55.191Z,91.25
2019-03-11T03:29:26.401Z,91.03
2019-03-11T03:31:57.651Z,90.87
2019-03-11T03:34:29.602Z,90.37
2019-03-11T03:37:01.624Z,90.51
2019-03-11T03:39:33.007Z,90.26
2019-03-11T03:42:04.839Z,90.26
2019-03-11T03:44:35.860Z,90.53
2019-03-11T03:47:06.961Z,90.61
2019-03-11T03:49:37.871Z,90.51
2019-03-11T03:52:09.266Z,90.84
2019-03-11T03:54:40.431Z,90.74
2019-03-11T03:57:12.786Z,90.79
2019-03-11T03:59:43.867Z,91.04
2019-03-11T04:02:15.190Z,91.18
2019-03-11T04:04:46.854Z,91.70
2019-03-11T04:07:21.031Z,92.17
2019-03-11T04:09:52.840Z,92.28
2019-03-11T04:12:24.797Z,92.53
2019-03-11T04:14:56.526Z,92.67
2019-03-11T04:17:27.915Z,92.65
2019-03-11T04:20:00.078Z,92.58
2019-03-11T04:23:38.026Z,92.41
2019-03-11T04:26:10.441Z,92.48
2019-03-11T04:28:42.556Z,92.12
2019-03-11T04:31:13.718Z,91.75
2019-03-11T04:33:44.774Z,92.01
2019-03-11T04:36:18.346Z,92.03
2019-03-11T04:38:50.181Z,90.83
2019-03-11T04:41:21.700Z,90.76
2019-03-11T04:43:52.758Z,91.22
2019-03-11T04:46:24.866Z,91.12
2019-03-11T04:48:56.626Z,90.85
2019-03-11T04:51:28.346Z,90.59
2019-03-11T04:54:02.438Z,89.99
2019-03-11T04:56:34.455Z,90.17
2019-03-11T04:59:10.583Z,90.17
2019-03-11T05:01:43.152Z,90.33
2019-03-11T05:04:15.015Z,90.74
2019-03-11T05:06:47.000Z,90.61
2019-03-11T05:09:17.962Z,90.77
2019-03-11T05:11:49.237Z,91.00
2019-03-11T05:14:21.006Z,90.93
2019-03-11T05:16:52.417Z,90.33
2019-03-11T05:19:23.008Z,90.77
2019-03-11T05:21:54.848Z,90.45
2019-03-11T05:24:26.072Z,90.29
2019-03-11T05:26:58.204Z,90.51
2019-03-11T05:29:29.929Z,90.25
2019-03-11T05:32:02.083Z,89.88
2019-03-11T05:34:33.051Z,89.86
2019-03-11T05:37:04.183Z,90.08
2019-03-11T05:39:36.121Z,89.72
2019-03-11T05:42:07.977Z,89.33
2019-03-11T05:44:40.379Z,89.65
2019-03-11T05:47:11.753Z,89.27
2019-03-11T05:49:46.385Z,88.86
2019-03-11T05:52:17.415Z,88.60
2019-03-11T05:54:49.005Z,88.30
2019-03-11T05:57:20.198Z,88.21
2019-03-11T05:59:51.873Z,87.83
2019-03-11T06:02:23.609Z,88.12
2019-03-11T06:04:54.662Z,88.10
2019-03-11T06:07:32.612Z,87.59
2019-03-11T07:08:47.565Z,86.55
2019-03-11T07:11:18.250Z,86.92
2019-03-11T07:13:49.890Z,86.62
2019-03-11T07:16:20.695Z,86.49
2019-03-11T07:18:52.364Z,87.05
2019-03-11T07:21:23.947Z,86.68
2019-03-11T07:23:55.297Z,87.05
2019-03-11T07:26:26.170Z,87.70
2019-03-11T07:28:58.683Z,87.54
2019-03-11T07:31:30.917Z,87.35
2019-03-11T07:34:02.058Z,88.00
2019-03-11T07:36:33.197Z,88.82
2019-03-11T07:39:06.005Z,88.77
2019-03-11T07:41:36.921Z,88.59
2019-03-11T07:44:07.360Z,88.56
2019-03-11T07:46:37.913Z,88.38
2019-03-11T07:49:08.362Z,88.47
2019-03-11T07:51:38.804Z,88.64
2019-03-11T07:54:09.480Z,88.27
2019-03-11T07:56:40.257Z,88.23
2019-03-11T07:59:10.717Z,88.18
2019-03-11T08:01:41.261Z,87.67
2019-03-11T08:04:11.874Z,86.64
2019-03-11T08:06:42.383Z,86.62
2019-03-11T08:09:13.288Z,85.66
2019-03-11T08:11:44.184Z,86.08
2019-03-11T08:14:14.694Z,85.25
2019-03-11T08:16:45.266Z,86.46
2019-03-11T08:19:15.797Z,87.09
2019-03-11T08:21:46.826Z,88.16
2019-03-11T08:24:17.563Z,88.73
2019-03-11T08:26:48.222Z,88.41
2019-03-11T08:29:18.834Z,89.51
2019-03-11T08:31:49.420Z,90.21
2019-03-11T08:34:19.940Z,90.62
2019-03-11T08:36:50.479Z,90.72
2019-03-11T08:39:21.275Z,90.72
2019-03-11T08:41:51.721Z,91.09
2019-03-11T08:44:22.580Z,91.35
2019-03-11T08:46:53.252Z,91.14
2019-03-11T08:49:23.685Z,90.77
2019-03-11T08:51:54.165Z,91.09
2019-03-11T08:54:24.641Z,91.49
2019-03-11T08:56:55.455Z,91.24
2019-03-11T08:59:25.922Z,91.26
2019-03-11T09:01:56.415Z,91.22
2019-03-11T09:04:26.837Z,91.73
2019-03-11T09:06:57.949Z,90.28
2019-03-11T09:09:28.685Z,91.07
2019-03-11T09:11:59.182Z,91.16
2019-03-11T09:14:29.521Z,91.15
2019-03-11T09:17:00.087Z,91.50
2019-03-11T09:19:30.442Z,91.12
2019-03-11T09:22:00.980Z,91.32
2019-03-11T09:24:31.421Z,91.83
2019-03-11T09:27:01.856Z,92.13
2019-03-11T09:29:32.323Z,91.92
2019-03-11T09:32:02.787Z,91.69
2019-03-11T09:34:33.459Z,91.75
2019-03-11T09:37:04.182Z,91.56
2019-03-11T09:39:34.612Z,91.83
2019-03-11T09:42:05.081Z,91.87
2019-03-11T09:44:35.820Z,92.12
2019-03-11T09:47:06.302Z,91.92
2019-03-11T09:49:36.899Z,91.74
2019-03-11T09:52:07.821Z,92.14
2019-03-11T09:54:38.585Z,91.69
2019-03-11T09:57:09.030Z,91.87
2019-03-11T09:59:39.876Z,92.07
2019-03-11T10:02:12.289Z,91.51
2019-03-11T10:04:43.220Z,91.63
2019-03-11T10:07:13.771Z,90.95
2019-03-11T10:09:45.061Z,90.96
2019-03-11T10:12:15.667Z,90.83
2019-03-11T10:14:46.200Z,90.98
2019-03-11T10:17:16.884Z,91.24
2019-03-11T10:19:47.260Z,91.60
2019-03-11T10:22:17.654Z,91.42
2019-03-11T10:24:48.349Z,91.11
2019-03-11T10:27:18.792Z,90.94
2019-03-11T10:29:49.222Z,91.23
2019-03-11T10:32:19.627Z,90.56
2019-03-11T10:34:50.401Z,90.67
2019-03-11T10:37:20.801Z,89.64
2019-03-11T10:39:51.329Z,89.36
2019-03-11T10:42:21.780Z,90.24
2019-03-11T10:44:52.150Z,88.57
2019-03-11T10:47:22.765Z,89.99
2019-03-11T10:49:53.253Z,89.37
2019-03-11T10:52:23.862Z,89.33
2019-03-11T10:54:54.376Z,87.06
2019-03-11T10:57:24.942Z,88.13
2019-03-11T10:59:55.392Z,89.23
2019-03-11T11:02:26.072Z,89.19
2019-03-11T11:04:56.737Z,88.85
2019-03-11T11:07:31.041Z,88.61
2019-03-11T11:10:03.161Z,86.79
2019-03-11T11:12:34.440Z,86.36
2019-03-11T11:15:08.244Z,87.17
2019-03-11T11:17:38.817Z,86.02
2019-03-11T11:20:12.347Z,85.68
2019-03-11T11:22:43.094Z,86.36
2019-03-11T11:25:16.908Z,86.09
2019-03-11T11:27:47.342Z,83.21
2019-03-11T11:30:19.406Z,84.01
2019-03-11T11:32:50.124Z,84.42
2019-03-11T11:35:20.801Z,83.73
2019-03-11T11:37:51.297Z,80.03
2019-03-11T11:40:24.463Z,81.34
2019-03-11T11:42:54.940Z,80.03
2019-03-11T11:45:27.342Z,81.24
2019-03-11T11:47:57.846Z,78.99
2019-03-11T11:50:28.525Z,79.19
2019-03-11T11:52:58.974Z,77.11
2019-03-11T11:55:30.016Z,75.96
2019-03-11T11:58:00.770Z,79.70
2019-03-11T12:00:33.483Z,76.76
2019-03-11T12:03:04.412Z,77.63
2019-03-11T12:05:35.338Z,75.64
2019-03-11T12:08:05.825Z,74.72
2019-03-11T12:10:39.447Z,74.33
2019-03-11T12:13:10.261Z,76.16
2019-03-11T12:15:40.999Z,76.84
2019-03-11T12:18:11.630Z,76.62
2019-03-11T12:20:42.215Z,75.90
2019-03-11T12:23:12.957Z,76.95
2019-03-11T12:25:43.406Z,79.77
2019-03-11T12:28:14.297Z,78.37
2019-03-11T12:30:44.959Z,77.37
2019-03-11T12:33:15.908Z,79.09
2019-03-11T12:35:47.112Z,78.35
2019-03-11T12:38:18.998Z,79.05
2019-03-11T12:40:50.415Z,76.00
2019-03-11T12:43:21.071Z,75.20
2019-03-11T12:45:52.006Z,73.97
2019-03-11T12:48:22.383Z,74.75
2019-03-11T12:50:52.902Z,74.35
2019-03-11T12:53:23.461Z,75.94
2019-03-11T12:55:54.561Z,73.61
2019-03-11T12:58:25.370Z,72.72
2019-03-11T13:00:56.792Z,74.35
2019-03-11T13:03:28.678Z,75.28
2019-03-11T13:05:59.258Z,75.45
2019-03-11T13:08:30.430Z,75.70
2019-03-11T13:11:00.903Z,75.92
2019-03-11T13:13:31.814Z,75.31
2019-03-11T13:16:02.452Z,75.68
2019-03-11T13:18:35.915Z,75.08
2019-03-11T13:21:10.577Z,75.57
2019-03-11T13:23:41.754Z,74.05
2019-03-11T13:26:16.435Z,73.85
2019-03-11T13:28:47.636Z,73.61
2019-03-11T13:31:18.042Z,70.27
2019-03-11T13:33:48.585Z,69.33
2019-03-11T13:36:27.176Z,70.39
2019-03-11T13:38:58.325Z,76.17
2019-03-11T13:41:28.913Z,77.94
2019-03-11T13:43:59.496Z,78.53
2019-03-11T13:46:29.890Z,77.53
2019-03-11T13:49:00.453Z,79.24
2019-03-11T13:51:30.985Z,76.56
2019-03-11T13:54:01.548Z,78.00
2019-03-11T13:56:32.021Z,75.16
2019-03-11T13:59:02.502Z,77.17
2019-03-11T14:01:33.018Z,76.71
2019-03-11T14:04:03.682Z,76.86
2019-03-11T14:06:34.582Z,77.34
2019-03-11T14:09:06.776Z,77.81
2019-03-11T14:11:41.746Z,78.90
2019-03-11T14:14:13.545Z,77.31
2019-03-11T14:16:44.225Z,75.30
2019-03-11T14:19:14.773Z,75.26
2019-03-11T14:21:45.216Z,73.60
2019-03-11T14:24:15.728Z,72.87
2019-03-11T14:26:46.332Z,71.94
2019-03-11T14:29:16.874Z,72.18
2019-03-11T14:31:49.615Z,74.44
2019-03-11T14:34:20.152Z,76.72
2019-03-11T14:36:52.902Z,77.74
2019-03-11T14:39:23.438Z,78.60
2019-03-11T14:41:54.111Z,79.57
2019-03-11T14:44:24.578Z,79.33
2019-03-11T14:46:55.034Z,80.51
2019-03-11T14:49:25.708Z,80.80
2019-03-11T14:51:56.161Z,81.28
2019-03-11T14:54:26.665Z,81.39
2019-03-11T14:56:57.133Z,80.47
2019-03-11T14:59:27.511Z,81.46
2019-03-11T15:01:58.041Z,81.80
2019-03-11T15:04:28.531Z,81.76
2019-03-11T15:06:58.997Z,82.71
2019-03-11T15:09:30.061Z,82.30
2019-03-11T15:12:00.427Z,82.73
2019-03-11T15:14:33.650Z,83.14
2019-03-11T15:17:03.337Z,82.94
2019-03-11T15:19:33.815Z,83.14
2019-03-11T15:22:04.316Z,83.90
2019-03-11T15:24:34.725Z,83.54
2019-03-11T15:27:16.184Z,84.10
2019-03-11T15:29:51.807Z,84.09
2019-03-11T15:32:22.364Z,83.91
2019-03-11T15:34:52.859Z,84.44
2019-03-11T15:37:24.763Z,83.89
2019-03-11T15:39:55.295Z,82.81
2019-03-11T15:42:25.777Z,82.42
2019-03-11T15:44:56.416Z,82.70
2019-03-11T15:47:27.090Z,82.43
2019-03-11T15:49:58.477Z,82.31
2019-03-11T15:52:28.908Z,81.55
2019-03-11T15:54:59.443Z,81.68
2019-03-11T15:57:38.739Z,82.02
2019-03-11T16:00:03.494Z,82.28
2019-03-11T16:02:35.525Z,83.50
2019-03-11T16:05:05.973Z,85.39
2019-03-11T16:07:36.458Z,86.63
2019-03-11T16:10:16.728Z,87.75
2019-03-11T16:12:47.782Z,88.39
2019-03-11T16:15:20.029Z,88.78
2019-03-11T16:17:50.556Z,89.26
2019-03-11T16:20:22.609Z,89.91
2019-03-11T16:22:52.989Z,90.33
2019-03-11T16:25:23.394Z,90.59
2019-03-11T16:27:54.984Z,91.11
2019-03-11T16:30:26.573Z,90.82
2019-03-11T16:33:06.175Z,90.52
2019-03-11T16:35:36.624Z,90.53
2019-03-11T16:38:07.230Z,90.72
2019-03-11T16:40:38.216Z,90.75
2019-03-11T16:43:08.956Z,90.84
2019-03-11T16:45:39.564Z,91.02
2019-03-11T16:48:11.929Z,91.04
2019-03-11T16:50:45.983Z,91.31
2019-03-11T16:53:19.698Z,91.17
2019-03-11T16:55:51.841Z,91.17
2019-03-11T16:58:23.616Z,90.80
2019-03-11T17:00:55.907Z,91.49
2019-03-11T17:03:26.367Z,91.26
2019-03-11T17:05:56.919Z,90.89
2019-03-11T17:08:28.146Z,90.51
2019-03-11T17:11:00.372Z,90.38
2019-03-11T17:13:34.166Z,90.34
2019-03-11T17:16:05.723Z,90.07
2019-03-11T17:18:36.986Z,90.50
2019-03-11T17:21:07.466Z,90.45
2019-03-11T17:23:38.442Z,90.45
2019-03-11T17:26:09.004Z,90.17
2019-03-11T17:28:40.091Z,89.75
2019-03-11T17:31:10.553Z,90.19
2019-03-11T17:33:41.089Z,90.37
2019-03-11T17:36:12.865Z,90.39
2019-03-11T17:38:43.454Z,90.48
2019-03-11T17:41:14.430Z,90.78
2019-03-11T17:43:45.523Z,90.69
2019-03-11T17:46:16.511Z,90.85
2019-03-11T17:48:47.100Z,90.75
2019-03-11T17:51:17.805Z,90.71
2019-03-11T17:53:48.724Z,90.69
2019-03-11T17:56:19.550Z,90.80
2019-03-11T17:58:50.103Z,90.76
2019-03-11T18:01:21.281Z,90.85
2019-03-11T18:03:52.021Z,90.62
2019-03-11T18:06:22.723Z,91.09
2019-03-11T18:08:53.827Z,91.13
2019-03-11T18:11:24.907Z,91.46
2019-03-11T18:13:56.433Z,90.52
2019-03-11T18:16:26.994Z,90.74
2019-03-11T18:18:57.622Z,90.20
2019-03-11T18:21:28.742Z,89.50
2019-03-11T18:23:59.854Z,89.98
2019-03-11T18:26:30.302Z,90.18
2019-03-11T18:29:00.821Z,90.36
2019-03-11T18:31:34.372Z,90.65
2019-03-11T18:34:05.142Z,91.08
2019-03-11T18:36:35.994Z,91.20
2019-03-11T18:39:07.922Z,91.02
2019-03-11T18:41:38.799Z,91.31
2019-03-11T18:44:11.367Z,91.46
2019-03-11T18:46:43.899Z,91.39
2019-03-11T18:49:18.259Z,91.19
2019-03-11T18:51:50.428Z,91.15
2019-03-11T18:54:25.077Z,91.43
2019-03-11T18:56:56.259Z,91.53
2019-03-11T18:59:26.730Z,91.25
2019-03-11T19:01:57.535Z,91.22
2019-03-11T19:04:28.245Z,91.73
2019-03-11T19:06:59.309Z,91.77
2019-03-11T19:09:29.789Z,91.53
2019-03-11T19:12:01.542Z,91.86
2019-03-11T19:14:36.857Z,91.85
2019-03-11T19:17:09.166Z,92.00
2019-03-11T19:19:46.247Z,91.79
2019-03-11T19:22:14.987Z,91.99
2019-03-11T19:24:45.437Z,92.14
2019-03-11T19:27:16.059Z,91.85
2019-03-11T19:29:46.879Z,91.46
2019-03-11T19:32:18.460Z,91.76
2019-03-11T19:34:49.144Z,91.79
2019-03-11T19:37:19.800Z,91.75
2019-03-11T19:39:50.353Z,91.98
2019-03-11T19:42:21.071Z,91.97
2019-03-11T19:44:51.799Z,91.92
2019-03-11T19:47:22.241Z,91.80
2019-03-11T19:49:54.097Z,91.59
2019-03-11T19:52:25.695Z,91.72
2019-03-11T19:54:56.322Z,91.90
2019-03-11T19:57:26.962Z,91.92
2019-03-11T19:59:57.447Z,91.78
2019-03-11T20:02:27.957Z,91.74
2019-03-11T20:04:59.834Z,91.78
2019-03-11T20:07:30.627Z,91.30
2019-03-11T20:10:01.629Z,91.59
2019-03-11T20:12:32.728Z,91.67
2019-03-11T20:15:05.926Z,91.58
2019-03-11T20:17:37.431Z,91.75
2019-03-11T20:20:11.310Z,91.60
2019-03-11T20:22:42.905Z,91.64
2019-03-11T20:25:16.539Z,91.83
2019-03-11T20:27:48.457Z,91.88
2019-03-11T20:30:20.766Z,91.98
2019-03-11T20:32:51.571Z,91.88
2019-03-11T20:35:22.134Z,91.91
2019-03-11T20:37:52.730Z,91.82
2019-03-11T20:40:47.160Z,91.66
2019-03-11T20:43:18.730Z,91.86
2019-03-11T20:45:49.488Z,91.68
2019-03-11T20:48:20.860Z,91.91
2019-03-11T20:50:51.304Z,92.05
2019-03-11T20:53:21.924Z,92.07
2019-03-11T20:55:53.476Z,92.06
2019-03-11T20:58:25.470Z,91.90
2019-03-11T21:00:56.274Z,92.09
2019-03-11T21:03:44.994Z,92.19
2019-03-11T21:06:15.888Z,91.92
2019-03-11T21:08:46.472Z,92.04
2019-03-11T21:11:17.201Z,91.93
2019-03-11T21:13:47.683Z,91.99
2019-03-11T21:16:18.329Z,91.86
2019-03-11T21:18:49.101Z,91.56
2019-03-11T21:21:19.617Z,91.80
2019-03-11T21:24:01.608Z,91.78
2019-03-11T21:26:23.328Z,91.57
2019-03-11T21:28:55.259Z,91.53
2019-03-11T21:31:28.066Z,91.47
2019-03-11T21:33:59.277Z,91.55
2019-03-11T21:36:32.194Z,91.86
2019-03-11T21:39:05.465Z,91.88
2019-03-11T21:41:39.121Z,91.76
2019-03-11T21:44:10.432Z,91.87
2019-03-11T21:46:42.192Z,91.93
2019-03-11T21:49:15.308Z,91.41
2019-03-11T21:51:46.462Z,91.78
2019-03-11T21:54:18.179Z,91.81
2019-03-11T21:56:49.323Z,91.27
2019-03-11T21:59:21.738Z,91.28
2019-03-11T22:01:53.381Z,91.45
2019-03-11T22:04:25.176Z,91.54
2019-03-11T22:06:56.541Z,91.31
2019-03-11T22:09:28.659Z,90.79
2019-03-11T22:11:59.618Z,90.76
2019-03-11T22:14:31.299Z,90.40
2019-03-11T22:17:03.788Z,90.47
2019-03-11T22:19:35.865Z,90.39
2019-03-11T22:22:07.548Z,90.24
2019-03-11T22:24:38.708Z,90.37
2019-03-11T22:27:09.951Z,90.39
2019-03-11T22:29:41.758Z,90.56
2019-03-11T22:32:14.271Z,90.51
2019-03-11T22:34:45.129Z,90.71
2019-03-11T22:37:16.929Z,91.05
2019-03-11T22:39:48.668Z,90.97
2019-03-11T22:42:20.078Z,91.22
2019-03-11T22:44:51.506Z,91.19
2019-03-11T22:47:23.188Z,91.05
2019-03-11T22:49:54.926Z,91.12
2019-03-11T22:52:26.475Z,90.98
2019-03-11T22:54:58.473Z,91.03
2019-03-11T22:57:31.028Z,90.58
2019-03-11T23:00:02.788Z,89.93
2019-03-11T23:02:40.040Z,90.07
2019-03-11T23:05:08.506Z,89.95
2019-03-11T23:07:40.837Z,89.96
2019-03-11T23:10:13.704Z,90.25
2019-03-11T23:12:45.850Z,90.01
2019-03-11T23:15:17.060Z,90.25
2019-03-11T23:17:48.549Z,90.24
2019-03-11T23:20:20.205Z,89.99
2019-03-11T23:22:52.801Z,90.24
2019-03-11T23:25:23.692Z,89.76
2019-03-11T23:27:54.650Z,89.88
2019-03-11T23:30:26.367Z,89.85
2019-03-11T23:32:58.586Z,89.40
2019-03-11T23:35:30.759Z,89.55
2019-03-11T23:38:02.423Z,89.79
2019-03-11T23:40:33.920Z,89.99
2019-03-11T23:43:05.369Z,90.38
2019-03-11T23:45:37.208Z,90.23
2019-03-11T23:48:08.103Z,90.53
2019-03-11T23:50:39.345Z,90.31
2019-03-11T23:53:10.062Z,89.96
2019-03-11T23:55:41.147Z,90.00
2019-03-11T23:58:12.785Z,90.15
